createdAt,value
2023-01-22T00:01:17.064Z,18.75
2023-01-22T00:03:46.816Z,15.50
2023-01-22T00:06:15.243Z,17.27
2023-01-22T00:08:43.000Z,17.55
2023-01-22T00:11:10.701Z,16.55
2023-01-22T00:13:39.040Z,18.98
2023-01-22T00:16:07.523Z,18.17
2023-01-22T00:18:35.183Z,22.17
2023-01-22T00:21:03.033Z,20.00
2023-01-22T00:23:31.101Z,19.48
2023-01-22T00:26:06.602Z,20.52
2023-01-22T00:28:34.411Z,15.68
2023-01-22T00:31:03.376Z,17.63
2023-01-22T00:33:31.495Z,19.52
2023-01-22T00:36:13.019Z,21.40
2023-01-22T00:38:41.772Z,21.25
2023-01-22T00:41:09.635Z,19.30
2023-01-22T00:43:38.853Z,18.35
2023-01-22T00:46:07.544Z,18.33
2023-01-22T00:48:36.392Z,18.77
2023-01-22T00:51:04.711Z,14.57
2023-01-22T00:53:37.383Z,15.05
2023-01-22T00:56:05.784Z,15.10
2023-01-22T00:58:33.782Z,15.98
2023-01-22T01:01:02.726Z,17.00
2023-01-22T01:03:31.751Z,18.42
2023-01-22T01:06:20.079Z,16.33
2023-01-22T01:08:48.061Z,13.30
2023-01-22T01:11:22.219Z,16.80
2023-01-22T01:13:50.505Z,15.95
2023-01-22T01:16:20.501Z,17.27
2023-01-22T01:18:48.765Z,15.77
2023-01-22T01:21:17.399Z,15.88
2023-01-22T01:23:45.493Z,15.90
2023-01-22T01:26:14.518Z,17.58
2023-01-22T01:28:42.991Z,16.17
2023-01-22T01:31:12.101Z,17.85
2023-01-22T01:33:40.636Z,18.67
2023-01-22T01:36:14.240Z,17.95
2023-01-22T01:38:42.060Z,17.95
2023-01-22T01:41:11.784Z,21.20
2023-01-22T01:43:58.031Z,20.90
2023-01-22T01:46:25.712Z,21.05
2023-01-22T01:48:53.621Z,24.45
2023-01-22T01:51:32.173Z,24.42
2023-01-22T01:54:00.383Z,26.83
2023-01-22T01:56:30.427Z,25.40
2023-01-22T01:59:02.080Z,28.02
2023-01-22T02:01:30.126Z,29.73
2023-01-22T02:03:57.825Z,29.00
2023-01-22T02:06:25.389Z,31.00
2023-01-22T02:08:55.159Z,29.15
2023-01-22T02:11:23.121Z,31.75
2023-01-22T02:13:58.298Z,33.13
2023-01-22T02:16:28.008Z,33.80
2023-01-22T02:18:56.069Z,32.42
2023-01-22T02:21:43.339Z,32.60
2023-01-22T02:24:13.131Z,30.92
2023-01-22T02:26:41.640Z,31.45
2023-01-22T02:29:10.737Z,34.28
2023-01-22T02:31:39.535Z,35.45
2023-01-22T02:34:07.832Z,32.60
2023-01-22T02:36:37.852Z,31.35
2023-01-22T02:39:06.234Z,30.65
2023-01-22T02:41:33.929Z,31.85
2023-01-22T02:44:01.641Z,30.95
2023-01-22T02:46:30.624Z,32.97
2023-01-22T02:48:58.312Z,31.75
2023-01-22T02:51:26.786Z,33.03
2023-01-22T02:53:56.088Z,32.00
2023-01-22T02:56:24.017Z,29.63
2023-01-22T02:58:51.655Z,31.17
2023-01-22T03:01:21.857Z,30.63
2023-01-22T03:04:13.927Z,32.40
2023-01-22T03:06:44.161Z,30.97
2023-01-22T03:09:13.156Z,33.22
2023-01-22T03:11:41.887Z,29.23
2023-01-22T03:14:32.316Z,28.75
2023-01-22T03:17:18.738Z,29.60
2023-01-22T03:20:08.111Z,30.80
2023-01-22T03:22:35.833Z,31.38
2023-01-22T03:25:03.394Z,34.05
2023-01-22T03:27:32.161Z,35.30
2023-01-22T03:29:59.694Z,36.85
2023-01-22T03:32:28.481Z,38.85
2023-01-22T03:34:56.025Z,39.47
2023-01-22T03:37:25.411Z,36.45
2023-01-22T03:39:57.521Z,33.05
2023-01-22T03:42:36.124Z,30.80
2023-01-22T03:45:03.982Z,29.27
2023-01-22T03:47:35.511Z,26.33
2023-01-22T03:50:14.936Z,27.42
2023-01-22T03:52:42.818Z,27.02
2023-01-22T03:55:11.166Z,26.17
2023-01-22T03:57:39.292Z,26.80
2023-01-22T04:00:08.065Z,24.35
2023-01-22T04:02:42.646Z,24.98
2023-01-22T04:05:19.349Z,26.30
2023-01-22T04:07:49.532Z,26.33
2023-01-22T04:10:18.912Z,27.65
2023-01-22T04:12:47.341Z,26.65
2023-01-22T04:15:18.146Z,22.52
2023-01-22T04:17:46.798Z,26.75
2023-01-22T04:20:41.809Z,24.25
2023-01-22T04:23:19.793Z,23.85
2023-01-22T04:25:48.751Z,27.38
2023-01-22T04:28:16.976Z,30.50
2023-01-22T04:30:50.036Z,33.53
2023-01-22T04:33:37.969Z,33.88
2023-01-22T04:36:10.000Z,33.03
2023-01-22T04:38:38.181Z,24.63
2023-01-22T04:41:07.723Z,24.83
2023-01-22T04:43:35.621Z,26.00
2023-01-22T04:46:04.652Z,23.23
2023-01-22T04:48:34.362Z,25.80
2023-01-22T04:51:02.526Z,23.13
2023-01-22T04:53:33.059Z,24.00
2023-01-22T04:56:01.329Z,23.50
2023-01-22T04:58:29.601Z,20.65
2023-01-22T05:01:00.058Z,22.95
2023-01-22T05:03:28.011Z,23.08
2023-01-22T05:06:04.950Z,24.13
2023-01-22T05:08:37.534Z,22.70
2023-01-22T05:11:05.526Z,22.30
2023-01-22T05:13:55.937Z,25.60
2023-01-22T05:16:24.029Z,27.05
2023-01-22T05:18:52.229Z,30.23
2023-01-22T05:21:20.048Z,30.20
2023-01-22T05:23:48.424Z,26.65
2023-01-22T05:26:17.601Z,26.90
2023-01-22T05:29:04.942Z,27.23
2023-01-22T05:31:58.603Z,26.23
2023-01-22T05:34:31.155Z,25.33
2023-01-22T05:37:00.128Z,25.17
2023-01-22T05:39:30.078Z,24.60
2023-01-22T05:41:59.972Z,25.58
2023-01-22T05:44:27.759Z,23.98
2023-01-22T05:46:56.398Z,25.13
2023-01-22T05:49:23.893Z,24.73
2023-01-22T05:52:00.249Z,26.00
2023-01-22T05:54:28.788Z,18.92
2023-01-22T05:56:58.120Z,22.17
2023-01-22T05:59:27.026Z,24.80
2023-01-22T06:02:00.034Z,25.50
2023-01-22T06:04:27.828Z,25.17
2023-01-22T06:06:58.817Z,25.13
2023-01-22T06:09:28.026Z,22.52
2023-01-22T06:11:57.950Z,22.02
2023-01-22T06:14:25.921Z,20.20
2023-01-22T06:16:57.535Z,19.70
2023-01-22T06:19:39.898Z,19.23
2023-01-22T06:22:08.760Z,19.40
2023-01-22T06:24:49.261Z,19.23
2023-01-22T06:27:18.467Z,19.55
2023-01-22T06:29:53.645Z,16.48
2023-01-22T06:32:22.086Z,17.13
2023-01-22T06:34:53.042Z,16.70
2023-01-22T06:37:22.058Z,13.65
2023-01-22T06:39:52.651Z,17.67
2023-01-22T06:42:25.963Z,14.40
2023-01-22T06:44:54.158Z,14.95
2023-01-22T06:47:24.641Z,14.88
2023-01-22T06:49:52.401Z,13.05
2023-01-22T06:52:20.236Z,13.70
2023-01-22T06:54:48.121Z,13.35
2023-01-22T06:57:21.183Z,13.13
2023-01-22T07:00:04.671Z,12.88
2023-01-22T07:02:34.026Z,13.38
2023-01-22T07:05:04.207Z,12.63
2023-01-22T07:07:35.193Z,12.43
2023-01-22T07:10:04.048Z,12.07
2023-01-22T07:12:32.190Z,11.80
2023-01-22T07:15:01.521Z,11.70
2023-01-22T07:17:30.090Z,11.35
2023-01-22T07:19:57.889Z,12.00
2023-01-22T07:22:25.670Z,11.77
2023-01-22T07:24:53.497Z,12.10
2023-01-22T07:27:23.318Z,11.52
2023-01-22T07:29:56.528Z,10.07
2023-01-22T07:32:26.782Z,9.90
2023-01-22T07:34:54.583Z,10.13
2023-01-22T07:37:27.051Z,11.13
2023-01-22T07:39:55.050Z,12.07
2023-01-22T07:42:22.767Z,11.02
2023-01-22T07:44:50.471Z,10.68
2023-01-22T07:47:18.104Z,10.32
2023-01-22T07:49:45.873Z,9.35
2023-01-22T07:52:13.452Z,10.85
2023-01-22T07:54:41.280Z,10.00
2023-01-22T07:57:14.567Z,10.43
2023-01-22T07:59:42.523Z,10.20
2023-01-22T08:02:14.518Z,10.40
2023-01-22T08:04:42.574Z,9.68
2023-01-22T08:07:18.131Z,9.90
2023-01-22T08:09:46.283Z,9.13
2023-01-22T08:12:13.783Z,10.30
2023-01-22T08:14:41.816Z,9.88
2023-01-22T08:17:09.382Z,9.05
2023-01-22T08:19:37.023Z,11.60
2023-01-22T08:22:04.792Z,9.93
2023-01-22T08:24:32.715Z,9.10
2023-01-22T08:27:03.442Z,9.23
2023-01-22T08:29:31.107Z,7.10
2023-01-22T08:31:58.927Z,8.70
2023-01-22T08:34:26.962Z,9.23
2023-01-22T08:36:55.376Z,9.10
2023-01-22T08:39:23.094Z,8.98
2023-01-22T08:41:52.925Z,7.60
2023-01-22T08:44:20.781Z,12.15
2023-01-22T08:49:22.752Z,8.82
2023-01-22T08:51:50.671Z,9.65
2023-01-22T08:54:18.742Z,7.28
2023-01-22T08:56:46.919Z,9.13
2023-01-22T08:59:15.450Z,13.77
2023-01-22T09:01:43.125Z,12.15
2023-01-22T09:04:11.057Z,13.35
2023-01-22T09:06:39.281Z,10.13
2023-01-22T09:09:07.476Z,9.98
2023-01-22T09:11:37.385Z,10.07
2023-01-22T09:14:07.800Z,8.57
2023-01-22T09:16:35.601Z,8.48
2023-01-22T09:19:03.893Z,9.43
2023-01-22T09:21:33.481Z,7.45
2023-01-22T09:24:01.196Z,10.23
2023-01-22T09:26:28.906Z,8.75
2023-01-22T09:28:58.295Z,8.85
2023-01-22T09:31:26.269Z,9.30
2023-01-22T09:33:55.873Z,8.65
2023-01-22T09:36:23.785Z,7.80
2023-01-22T09:38:51.493Z,8.25
2023-01-22T09:41:40.514Z,9.32
2023-01-22T09:44:20.497Z,8.10
2023-01-22T09:47:08.118Z,8.85
2023-01-22T09:49:41.585Z,8.68
2023-01-22T09:52:09.576Z,8.95
2023-01-22T09:54:37.704Z,9.10
2023-01-22T09:57:06.380Z,7.68
2023-01-22T09:59:48.700Z,9.02
2023-01-22T10:02:20.981Z,9.25
2023-01-22T10:04:50.668Z,9.00
2023-01-22T10:07:23.605Z,8.43
2023-01-22T10:09:56.007Z,8.70
2023-01-22T10:12:26.525Z,10.13
2023-01-22T10:14:54.779Z,11.05
2023-01-22T10:17:24.736Z,12.52
2023-01-22T10:19:57.834Z,19.65
2023-01-22T10:22:26.856Z,11.82
2023-01-22T10:24:55.057Z,14.95
2023-01-22T10:27:36.723Z,9.43
2023-01-22T10:30:25.968Z,7.82
2023-01-22T10:33:04.710Z,8.10
2023-01-22T10:35:32.905Z,9.07
2023-01-22T10:38:04.887Z,8.05
2023-01-22T10:40:38.315Z,9.55
2023-01-22T10:43:16.415Z,8.35
2023-01-22T10:45:54.636Z,9.50
2023-01-22T10:48:22.637Z,9.27
2023-01-22T10:51:02.331Z,8.35
2023-01-22T10:53:35.441Z,9.65
2023-01-22T10:56:04.381Z,9.18
2023-01-22T10:58:34.419Z,8.52
2023-01-22T11:01:22.234Z,9.73
2023-01-22T11:03:50.041Z,8.68
2023-01-22T11:06:20.884Z,9.27
2023-01-22T11:09:05.787Z,8.52
2023-01-22T11:11:37.988Z,9.20
2023-01-22T11:14:11.512Z,9.00
2023-01-22T11:16:39.585Z,8.70
2023-01-22T11:19:14.037Z,6.72
2023-01-22T11:21:52.382Z,7.80
2023-01-22T11:24:21.960Z,8.15
2023-01-22T11:26:59.221Z,8.45
2023-01-22T11:29:59.273Z,9.55
2023-01-22T11:32:37.771Z,8.63
2023-01-22T11:35:30.369Z,7.78
2023-01-22T11:38:10.299Z,7.55
2023-01-22T11:40:57.796Z,6.65
2023-01-22T11:43:55.812Z,6.75
2023-01-22T11:46:38.011Z,7.00
2023-01-22T11:49:12.199Z,9.18
2023-01-22T11:52:07.752Z,8.35
2023-01-22T11:55:03.394Z,9.05
2023-01-22T11:57:34.412Z,8.13
2023-01-22T12:03:11.982Z,9.13
2023-01-22T12:06:02.494Z,8.60
2023-01-22T12:09:05.624Z,8.68
2023-01-22T12:11:43.332Z,8.45
2023-01-22T12:14:13.900Z,8.00
2023-01-22T12:16:56.250Z,6.90
2023-01-22T12:19:45.564Z,8.15
2023-01-22T12:22:46.693Z,9.15
2023-01-22T12:25:22.135Z,8.57
2023-01-22T12:27:54.142Z,9.60
2023-01-22T12:30:31.502Z,8.20
2023-01-22T12:33:00.111Z,7.97
2023-01-22T12:35:30.466Z,7.72
2023-01-22T12:38:03.948Z,8.75
2023-01-22T12:40:46.284Z,9.68
2023-01-22T12:43:14.157Z,9.32
2023-01-22T12:46:02.623Z,9.10
2023-01-22T12:48:36.457Z,10.20
2023-01-22T12:51:06.862Z,10.52
2023-01-22T12:53:34.881Z,9.73
2023-01-22T12:56:04.491Z,10.13
2023-01-22T12:58:34.101Z,7.72
2023-01-22T13:01:03.245Z,9.98
2023-01-22T13:03:32.500Z,10.27
2023-01-22T13:06:02.260Z,9.27
2023-01-22T13:08:43.107Z,9.88
2023-01-22T13:11:15.219Z,8.38
2023-01-22T13:14:14.774Z,7.80
2023-01-22T13:16:53.306Z,7.88
2023-01-22T13:19:25.798Z,8.70
2023-01-22T13:21:53.404Z,9.82
2023-01-22T13:24:21.430Z,9.82
2023-01-22T13:26:55.029Z,9.93
2023-01-22T13:29:27.139Z,10.43
2023-01-22T13:31:58.853Z,10.75
2023-01-22T13:34:26.979Z,11.05
2023-01-22T13:36:55.608Z,10.18
2023-01-22T13:39:30.822Z,10.85
2023-01-22T13:42:00.711Z,9.70
2023-01-22T13:44:36.122Z,10.55
2023-01-22T13:47:04.146Z,11.38
2023-01-22T13:49:32.833Z,11.70
2023-01-22T13:52:04.129Z,10.70
2023-01-22T13:54:43.115Z,10.43
2023-01-22T13:57:14.753Z,10.02
2023-01-22T13:59:51.643Z,7.88
2023-01-22T14:02:32.725Z,9.07
2023-01-22T14:05:00.328Z,9.90
2023-01-22T14:07:32.708Z,9.90
2023-01-22T14:10:23.628Z,10.77
2023-01-22T14:15:39.417Z,9.82
2023-01-22T14:18:10.922Z,11.32
2023-01-22T14:20:42.251Z,12.25
2023-01-22T14:23:10.181Z,13.00
2023-01-22T14:25:38.585Z,11.32
2023-01-22T14:28:06.373Z,13.60
2023-01-22T14:30:34.497Z,14.48
2023-01-22T14:33:02.261Z,13.63
2023-01-22T14:35:29.938Z,13.90
2023-01-22T14:37:57.532Z,10.73
2023-01-22T14:40:25.787Z,13.10
2023-01-22T14:42:53.577Z,12.63
2023-01-22T14:45:21.212Z,13.27
2023-01-22T14:47:49.878Z,11.75
2023-01-22T14:50:18.165Z,11.45
2023-01-22T14:52:46.485Z,11.65
2023-01-22T14:55:14.391Z,15.35
2023-01-22T14:57:42.454Z,14.20
2023-01-22T15:00:12.533Z,25.83
2023-01-22T15:02:41.761Z,17.48
2023-01-22T15:05:12.058Z,43.65
2023-01-22T15:07:39.999Z,24.17
2023-01-22T15:10:08.480Z,44.38
2023-01-22T15:12:36.795Z,44.50
2023-01-22T15:15:05.646Z,28.27
2023-01-22T15:17:33.540Z,24.85
2023-01-22T15:20:01.222Z,28.48
2023-01-22T15:22:29.187Z,25.27
2023-01-22T15:24:56.924Z,18.42
2023-01-22T15:27:24.586Z,17.70
2023-01-22T15:29:52.205Z,17.02
2023-01-22T15:32:20.459Z,18.55
2023-01-22T15:34:47.949Z,16.27
2023-01-22T15:37:15.584Z,15.55
2023-01-22T15:39:44.083Z,17.13
2023-01-22T15:42:11.665Z,17.50
2023-01-22T15:44:39.309Z,13.15
2023-01-22T15:47:08.537Z,14.65
2023-01-22T15:49:36.147Z,16.25
2023-01-22T15:52:04.329Z,14.30
2023-01-22T15:54:31.836Z,16.35
2023-01-22T15:56:59.379Z,18.70
2023-01-22T15:59:26.921Z,12.73
2023-01-22T16:01:54.419Z,10.95
2023-01-22T16:04:21.982Z,11.00
2023-01-22T16:06:51.590Z,11.13
2023-01-22T19:56:21.579Z,17.08
2023-01-22T19:58:50.144Z,14.43
2023-01-22T20:01:18.231Z,15.07
2023-01-22T20:03:46.252Z,15.27
2023-01-22T20:06:32.183Z,15.27
2023-01-22T20:08:59.996Z,13.82
2023-01-22T20:11:27.676Z,14.88
2023-01-22T20:13:55.333Z,12.77
2023-01-22T20:16:25.490Z,15.63
2023-01-22T20:18:53.892Z,14.32
2023-01-22T20:21:22.138Z,14.10
2023-01-22T20:23:50.475Z,14.38
2023-01-22T20:26:20.012Z,15.32
2023-01-22T20:28:48.011Z,13.68
2023-01-22T20:31:20.165Z,13.23
2023-01-22T20:33:50.426Z,14.20
2023-01-22T20:36:19.814Z,13.90
2023-01-22T20:38:48.416Z,14.63
2023-01-22T20:41:18.823Z,14.48
2023-01-22T20:43:46.541Z,14.20
2023-01-22T20:46:18.101Z,14.75
2023-01-22T20:48:47.119Z,14.10
2023-01-22T20:51:22.216Z,14.57
2023-01-22T20:53:50.812Z,14.05
2023-01-22T20:56:22.738Z,16.33
2023-01-22T20:58:55.763Z,13.15
2023-01-22T21:01:23.685Z,13.65
2023-01-22T21:03:55.357Z,11.07
2023-01-22T21:06:23.154Z,14.63
2023-01-22T21:08:54.631Z,13.35
2023-01-22T21:11:23.173Z,13.38
2023-01-22T21:13:51.842Z,14.15
2023-01-22T21:16:23.317Z,13.68
2023-01-22T21:18:52.855Z,13.93
2023-01-22T21:21:21.246Z,13.32
2023-01-22T21:23:50.485Z,13.57
2023-01-22T21:26:20.051Z,14.15
2023-01-22T21:28:48.569Z,13.07
2023-01-22T21:31:18.607Z,13.32
2023-01-22T21:33:46.753Z,13.32
2023-01-22T21:36:16.886Z,13.73
2023-01-22T21:38:48.054Z,13.25
2023-01-22T21:41:17.921Z,13.85
2023-01-22T21:44:04.622Z,23.60
2023-01-22T21:46:37.303Z,10.25
2023-01-22T21:49:16.470Z,15.23
2023-01-22T21:51:49.722Z,17.52
2023-01-22T21:54:19.936Z,18.48
2023-01-22T21:56:47.631Z,18.60
2023-01-22T21:59:15.230Z,15.07
2023-01-22T22:01:45.112Z,21.98
2023-01-22T22:04:13.133Z,16.70
2023-01-22T22:06:41.206Z,15.15
2023-01-22T22:09:12.177Z,15.32
2023-01-22T22:11:41.045Z,14.95
2023-01-22T22:14:14.023Z,12.68
2023-01-22T22:16:44.613Z,16.17
2023-01-22T22:19:13.173Z,14.73
2023-01-22T22:21:40.761Z,14.40
2023-01-22T22:24:11.345Z,10.23
2023-01-22T22:26:39.585Z,14.65
2023-01-22T22:29:07.492Z,14.27
2023-01-22T22:31:35.438Z,12.18
2023-01-22T22:34:03.021Z,14.43
2023-01-22T22:36:31.290Z,12.27
2023-01-22T22:39:00.433Z,15.60
2023-01-22T22:41:30.500Z,11.57
2023-01-22T22:43:58.199Z,13.88
2023-01-22T22:46:30.043Z,13.77
2023-01-22T22:48:59.566Z,15.10
2023-01-22T22:51:29.291Z,13.07
2023-01-22T22:53:59.085Z,13.82
2023-01-22T22:58:55.942Z,12.43
2023-01-22T23:01:24.301Z,12.07
2023-01-22T23:03:52.492Z,10.65
2023-01-22T23:06:22.084Z,13.35
2023-01-22T23:08:54.089Z,11.80
